createdAt,value
2019-03-21T00:01:37.406Z,1.90
2019-03-21T00:04:13.686Z,1.90
2019-03-21T00:06:44.791Z,1.80
2019-03-21T00:09:17.607Z,1.90
2019-03-21T00:11:59.487Z,1.80
2019-03-21T00:14:54.370Z,1.80
2019-03-21T00:17:28.561Z,1.90
2019-03-21T00:19:59.629Z,1.80
2019-03-21T00:22:30.689Z,1.90
2019-03-21T00:25:01.898Z,1.90
2019-03-21T00:27:33.285Z,1.80
2019-03-21T00:30:05.068Z,1.80
2019-03-21T00:32:36.131Z,1.80
2019-03-21T00:35:07.867Z,2.00
2019-03-21T00:37:38.878Z,2.10
2019-03-21T00:40:12.946Z,2.10
2019-03-21T00:42:44.010Z,2.00
2019-03-21T00:45:16.144Z,2.00
2019-03-21T00:47:47.346Z,1.90
2019-03-21T00:50:19.795Z,1.90
2019-03-21T00:52:52.575Z,1.90
2019-03-21T00:55:24.740Z,1.90
2019-03-21T00:57:58.432Z,2.00
2019-03-21T01:00:38.177Z,1.90
2019-03-21T01:03:09.963Z,1.90
2019-03-21T01:05:41.114Z,1.90
2019-03-21T01:08:13.225Z,1.90
2019-03-21T01:10:44.232Z,1.90
2019-03-21T01:13:15.795Z,1.90
2019-03-21T01:15:46.782Z,1.90
2019-03-21T01:18:17.793Z,1.90
2019-03-21T01:20:48.804Z,2.00
2019-03-21T01:23:19.869Z,2.10
2019-03-21T01:25:52.201Z,2.20
2019-03-21T01:28:23.229Z,2.30
2019-03-21T01:30:54.294Z,2.30
2019-03-21T01:33:25.423Z,2.40
2019-03-21T01:35:56.465Z,2.30
2019-03-21T01:38:27.472Z,2.20
2019-03-21T01:40:58.536Z,2.10
2019-03-21T01:43:29.584Z,2.00
2019-03-21T01:46:00.608Z,2.00
2019-03-21T01:48:31.757Z,1.90
2019-03-21T01:51:02.806Z,1.80
2019-03-21T01:53:33.885Z,1.80
2019-03-21T01:56:04.917Z,1.70
2019-03-21T01:58:36.991Z,1.70
2019-03-21T02:01:08.959Z,1.60
2019-03-21T02:03:40.122Z,1.60
2019-03-21T02:06:11.139Z,1.60
2019-03-21T02:08:42.207Z,1.60
2019-03-21T02:11:14.325Z,1.50
2019-03-21T02:13:45.433Z,1.60
2019-03-21T02:16:16.666Z,1.50
2019-03-21T02:18:47.751Z,1.50
2019-03-21T02:21:18.859Z,1.40
2019-03-21T02:23:50.008Z,1.40
2019-03-21T02:26:21.023Z,1.40
2019-03-21T02:28:51.985Z,1.40
2019-03-21T02:31:22.966Z,1.40
2019-03-21T02:33:53.995Z,1.40
2019-03-21T02:36:25.038Z,1.40
2019-03-21T02:38:56.043Z,1.40
2019-03-21T02:41:27.132Z,1.40
2019-03-21T02:43:58.173Z,1.40
2019-03-21T02:46:29.213Z,1.50
2019-03-21T02:49:00.280Z,1.50
2019-03-21T02:51:31.336Z,1.50
2019-03-21T02:54:02.410Z,1.50
2019-03-21T02:56:33.501Z,1.50
2019-03-21T02:59:04.792Z,1.50
2019-03-21T03:01:35.824Z,1.60
2019-03-21T03:04:06.783Z,1.60
2019-03-21T03:06:37.792Z,1.70
2019-03-21T03:09:09.691Z,1.70
2019-03-21T03:11:40.667Z,1.80
2019-03-21T03:14:11.845Z,1.90
2019-03-21T03:16:42.965Z,2.00
2019-03-21T03:19:14.075Z,2.00
2019-03-21T03:21:45.135Z,2.10
2019-03-21T03:24:16.196Z,2.10
2019-03-21T03:26:47.314Z,2.20
2019-03-21T03:29:18.346Z,2.30
2019-03-21T03:31:49.401Z,2.40
2019-03-21T03:34:20.521Z,2.50
2019-03-21T03:36:52.223Z,2.60
2019-03-21T03:39:23.325Z,2.70
2019-03-21T03:41:54.450Z,2.80
2019-03-21T03:44:25.553Z,2.90
2019-03-21T03:46:56.649Z,3.00
2019-03-21T03:49:27.722Z,3.00
2019-03-21T03:51:58.816Z,2.90
2019-03-21T03:54:29.849Z,2.90
2019-03-21T03:57:00.910Z,2.80
2019-03-21T03:59:31.864Z,2.80
2019-03-21T04:02:02.927Z,2.80
2019-03-21T04:04:34.127Z,2.80
2019-03-21T04:07:05.183Z,2.70
2019-03-21T04:09:36.197Z,2.70
2019-03-21T04:12:07.514Z,2.70
2019-03-21T04:14:38.481Z,2.60
2019-03-21T04:17:09.513Z,2.60
2019-03-21T04:19:40.473Z,2.50
2019-03-21T04:22:11.464Z,2.50
2019-03-21T04:24:42.591Z,2.50
2019-03-21T04:27:13.664Z,2.50
2019-03-21T04:29:44.656Z,2.50
2019-03-21T04:32:15.684Z,2.60
2019-03-21T04:34:46.710Z,2.60
2019-03-21T04:37:17.751Z,2.60
2019-03-21T04:39:48.799Z,2.70
2019-03-21T04:42:19.864Z,2.70
2019-03-21T04:44:50.873Z,2.80
2019-03-21T04:47:21.875Z,2.80
2019-03-21T04:49:52.887Z,2.80
2019-03-21T04:52:23.957Z,2.80
2019-03-21T04:54:55.017Z,2.80
2019-03-21T04:57:26.073Z,2.90
2019-03-21T04:59:57.111Z,2.90
2019-03-21T05:02:28.192Z,3.00
2019-03-21T05:04:59.251Z,3.00
2019-03-21T05:07:32.029Z,3.00
2019-03-21T05:10:03.094Z,3.10
2019-03-21T05:12:35.265Z,3.10
2019-03-21T05:15:08.151Z,3.10
2019-03-21T05:17:39.195Z,3.10
2019-03-21T05:20:14.304Z,3.20
2019-03-21T05:22:46.094Z,3.20
2019-03-21T05:25:17.116Z,3.20
2019-03-21T05:27:48.261Z,3.20
2019-03-21T05:30:22.653Z,3.30
2019-03-21T05:32:53.781Z,3.30
2019-03-21T05:35:24.931Z,3.40
2019-03-21T05:37:56.062Z,3.40
2019-03-21T05:40:27.101Z,3.40
2019-03-21T05:43:04.939Z,3.40
2019-03-21T05:45:37.708Z,3.40
2019-03-21T05:48:08.745Z,3.40
2019-03-21T05:50:39.863Z,3.50
2019-03-21T05:53:11.143Z,3.60
2019-03-21T05:55:42.251Z,3.70
2019-03-21T05:58:13.375Z,3.70
2019-03-21T06:00:45.318Z,3.80
2019-03-21T06:03:19.987Z,3.80
2019-03-21T06:06:00.620Z,3.90
2019-03-21T06:08:34.215Z,4.00
2019-03-21T06:11:05.533Z,4.00
2019-03-21T06:13:36.603Z,4.10
2019-03-21T06:16:11.576Z,4.10
2019-03-21T06:19:09.112Z,4.20
2019-03-21T06:22:11.353Z,4.30
2019-03-21T06:25:18.897Z,4.40
2019-03-21T06:27:50.140Z,4.50
2019-03-21T06:30:22.406Z,4.50
2019-03-21T06:32:53.606Z,4.60
2019-03-21T06:35:24.762Z,4.70
2019-03-21T06:37:55.812Z,4.80
2019-03-21T06:40:26.990Z,4.90
2019-03-21T06:42:58.332Z,5.00
2019-03-21T06:45:29.660Z,5.10
2019-03-21T06:48:00.697Z,5.10
2019-03-21T06:50:31.876Z,5.10
2019-03-21T06:53:03.396Z,5.20
2019-03-21T06:55:34.489Z,5.30
2019-03-21T06:58:05.811Z,5.30
2019-03-21T07:00:36.806Z,5.40
2019-03-21T07:03:07.882Z,5.50
2019-03-21T07:05:38.948Z,5.50
2019-03-21T07:08:10.068Z,5.60
2019-03-21T07:10:41.100Z,5.60
2019-03-21T07:13:12.281Z,5.70
2019-03-21T07:15:43.429Z,5.80
2019-03-21T07:18:14.547Z,5.90
2019-03-21T07:20:45.611Z,6.00
2019-03-21T07:23:16.675Z,6.10
2019-03-21T07:25:47.786Z,6.20
2019-03-21T07:28:18.832Z,6.30
2019-03-21T07:30:49.898Z,6.50
2019-03-21T07:33:20.938Z,6.60
2019-03-21T07:35:51.980Z,6.70
2019-03-21T07:38:23.131Z,6.80
2019-03-21T07:40:54.200Z,6.90
2019-03-21T07:43:25.237Z,7.00
2019-03-21T07:45:56.399Z,7.10
2019-03-21T07:48:27.528Z,7.30
2019-03-21T07:50:58.721Z,7.50
2019-03-21T07:53:29.825Z,7.60
2019-03-21T07:56:00.827Z,7.70
2019-03-21T07:58:31.853Z,7.80
2019-03-21T08:01:02.933Z,8.00
2019-03-21T08:03:34.078Z,8.00
2019-03-21T08:06:05.123Z,8.20
2019-03-21T08:08:36.244Z,8.30
2019-03-21T08:11:07.530Z,8.40
2019-03-21T08:13:38.589Z,8.50
2019-03-21T08:16:09.687Z,8.60
2019-03-21T08:18:40.772Z,8.80
2019-03-21T08:21:11.897Z,8.90
2019-03-21T08:23:42.874Z,8.90
2019-03-21T08:26:13.957Z,8.90
2019-03-21T08:28:44.979Z,8.90
2019-03-21T08:31:20.421Z,8.80
2019-03-21T08:33:51.505Z,8.90
2019-03-21T08:36:22.597Z,8.90
2019-03-21T08:38:54.801Z,8.90
2019-03-21T08:41:27.343Z,8.90
2019-03-21T08:43:58.556Z,8.90
2019-03-21T08:46:29.602Z,8.90
2019-03-21T08:49:00.734Z,8.80
2019-03-21T08:51:31.868Z,8.80
2019-03-21T08:54:02.889Z,8.80
2019-03-21T08:56:33.933Z,8.90
2019-03-21T08:59:05.126Z,8.90
2019-03-21T09:01:36.250Z,9.00
2019-03-21T09:04:07.286Z,9.00
2019-03-21T09:06:38.331Z,9.10
2019-03-21T09:09:10.364Z,9.20
2019-03-21T09:11:41.420Z,9.40
2019-03-21T09:14:12.468Z,9.60
2019-03-21T09:16:43.505Z,9.80
2019-03-21T09:19:14.568Z,9.90
2019-03-21T09:21:45.574Z,10.10
2019-03-21T09:24:17.717Z,10.20
2019-03-21T09:26:48.736Z,10.40
2019-03-21T09:29:19.799Z,10.60
2019-03-21T09:31:50.830Z,10.70
2019-03-21T09:34:21.834Z,10.90
2019-03-21T09:36:52.884Z,10.90
2019-03-21T09:39:23.928Z,10.90
2019-03-21T09:41:54.951Z,11.00
2019-03-21T09:44:24.682Z,10.90
2019-03-21T09:46:55.704Z,11.10
2019-03-21T09:49:26.908Z,10.70
2019-03-21T09:51:58.037Z,10.70
2019-03-21T09:54:29.236Z,10.60
2019-03-21T09:57:00.246Z,10.60
2019-03-21T09:59:31.334Z,10.40
2019-03-21T10:02:02.328Z,10.50
2019-03-21T10:04:33.396Z,10.60
2019-03-21T10:07:04.531Z,10.60
2019-03-21T10:09:35.588Z,10.60
2019-03-21T10:12:06.705Z,10.50
2019-03-21T10:14:37.713Z,10.30
2019-03-21T10:17:08.769Z,10.50
2019-03-21T10:19:39.800Z,10.70
2019-03-21T10:22:10.804Z,10.90
2019-03-21T10:24:41.820Z,10.80
2019-03-21T10:27:12.856Z,10.70
2019-03-21T10:29:44.879Z,10.60
2019-03-21T10:32:15.925Z,10.40
2019-03-21T10:34:47.017Z,10.10
2019-03-21T10:37:18.214Z,10.10
2019-03-21T10:39:49.312Z,10.20
2019-03-21T10:42:20.461Z,10.20
2019-03-21T10:44:51.493Z,10.30
2019-03-21T10:47:23.660Z,10.30
2019-03-21T10:49:54.702Z,10.40
2019-03-21T10:52:25.782Z,10.50
2019-03-21T10:54:56.772Z,10.50
2019-03-21T10:57:27.838Z,10.60
2019-03-21T11:00:01.608Z,10.70
2019-03-21T11:02:31.652Z,10.70
2019-03-21T11:05:02.783Z,10.80
2019-03-21T11:07:33.914Z,11.10
2019-03-21T11:10:06.005Z,11.20
2019-03-21T11:12:37.083Z,10.90
2019-03-21T11:15:09.055Z,10.90
2019-03-21T11:17:40.188Z,10.80
2019-03-21T11:20:13.084Z,10.80
2019-03-21T11:22:44.258Z,10.90
2019-03-21T11:25:15.291Z,10.80
2019-03-21T11:27:46.342Z,10.80
2019-03-21T11:30:20.383Z,11.10
2019-03-21T11:32:51.410Z,11.30
2019-03-21T11:35:22.558Z,11.30
2019-03-21T11:37:53.719Z,11.60
2019-03-21T11:40:24.709Z,11.80
2019-03-21T11:42:57.218Z,12.10
2019-03-21T11:45:28.320Z,12.00
2019-03-21T11:47:59.993Z,11.90
2019-03-21T11:50:31.261Z,12.00
2019-03-21T11:53:02.319Z,12.10
2019-03-21T11:55:33.322Z,12.50
2019-03-21T11:58:04.288Z,12.60
2019-03-21T12:00:42.965Z,12.80
2019-03-21T12:03:08.066Z,12.70
2019-03-21T12:05:39.248Z,12.50
2019-03-21T12:08:10.210Z,12.70
2019-03-21T12:10:41.235Z,12.80
2019-03-21T12:13:12.378Z,12.60
2019-03-21T12:15:43.412Z,12.40
2019-03-21T12:18:14.460Z,12.20
2019-03-21T12:20:45.600Z,12.10
2019-03-21T12:23:16.665Z,12.00
2019-03-21T12:25:47.984Z,12.20
2019-03-21T12:28:19.330Z,12.30
2019-03-21T12:30:50.409Z,12.20
2019-03-21T12:33:21.410Z,11.80
2019-03-21T12:35:52.523Z,11.80
2019-03-21T12:38:23.696Z,12.20
2019-03-21T12:40:54.767Z,12.30
2019-03-21T12:43:25.915Z,12.10
2019-03-21T12:45:56.998Z,12.10
2019-03-21T12:48:28.001Z,12.20
2019-03-21T12:50:59.104Z,12.30
2019-03-21T12:53:30.192Z,12.10
2019-03-21T12:56:01.209Z,12.10
2019-03-21T12:58:32.289Z,12.10
2019-03-21T13:01:03.374Z,12.40
2019-03-21T13:03:34.385Z,12.40
2019-03-21T13:06:05.584Z,12.60
2019-03-21T13:08:36.558Z,12.50
2019-03-21T13:11:07.705Z,12.40
2019-03-21T13:13:38.779Z,12.30
2019-03-21T13:16:09.814Z,12.60
2019-03-21T13:18:40.900Z,12.60
2019-03-21T13:21:11.987Z,12.70
2019-03-21T13:23:43.194Z,12.70
2019-03-21T13:26:14.200Z,12.80
2019-03-21T13:28:45.301Z,12.60
2019-03-21T13:31:17.435Z,12.60
2019-03-21T13:33:48.508Z,12.60
2019-03-21T13:36:19.492Z,12.60
2019-03-21T13:38:50.605Z,12.60
2019-03-21T13:41:21.634Z,12.80
2019-03-21T13:43:52.714Z,12.60
2019-03-21T13:46:24.769Z,12.40
2019-03-21T13:48:55.720Z,12.20
2019-03-21T13:51:26.802Z,12.20
2019-03-21T13:53:57.858Z,12.40
2019-03-21T13:56:37.811Z,12.30
2019-03-21T13:59:01.629Z,12.10
2019-03-21T14:01:32.685Z,12.00
2019-03-21T14:04:03.820Z,12.00
2019-03-21T14:06:34.839Z,12.10
2019-03-21T14:09:07.907Z,12.10
2019-03-21T14:11:39.507Z,12.30
2019-03-21T14:14:10.524Z,12.30
2019-03-21T14:16:47.601Z,12.30
2019-03-21T14:19:18.669Z,12.40
2019-03-21T14:21:49.753Z,12.30
2019-03-21T14:24:21.054Z,12.40
2019-03-21T14:26:52.335Z,12.40
2019-03-21T14:29:23.522Z,12.30
2019-03-21T14:31:54.500Z,12.20
2019-03-21T14:34:25.636Z,12.20
2019-03-21T14:36:56.622Z,12.20
2019-03-21T14:39:27.688Z,12.10
2019-03-21T14:41:58.742Z,11.90
2019-03-21T14:44:29.873Z,11.90
2019-03-21T14:47:00.878Z,11.80
2019-03-21T14:49:31.881Z,11.80
2019-03-21T14:52:02.938Z,11.80
2019-03-21T14:54:34.028Z,11.70
2019-03-21T14:57:05.079Z,11.70
2019-03-21T14:59:36.198Z,11.80
2019-03-21T15:02:07.342Z,11.90
2019-03-21T15:04:40.103Z,12.00
2019-03-21T15:07:11.392Z,12.00
2019-03-21T15:09:42.486Z,12.10
2019-03-21T15:12:13.689Z,12.20
2019-03-21T15:14:44.769Z,12.30
2019-03-21T15:17:15.883Z,12.40
2019-03-21T15:19:46.953Z,12.50
2019-03-21T15:22:17.999Z,12.50
2019-03-21T15:24:49.042Z,12.60
2019-03-21T15:27:20.235Z,12.40
2019-03-21T15:29:51.270Z,12.40
2019-03-21T15:32:22.452Z,12.30
2019-03-21T15:34:53.467Z,12.30
2019-03-21T15:37:24.490Z,12.20
2019-03-21T15:39:55.596Z,12.20
2019-03-21T15:42:26.596Z,12.10
2019-03-21T15:45:15.764Z,12.10
2019-03-21T15:47:30.414Z,12.20
2019-03-21T15:50:01.439Z,12.20
2019-03-21T15:52:32.560Z,12.10
2019-03-21T15:55:03.628Z,12.10
2019-03-21T15:57:34.714Z,12.10
2019-03-21T16:00:06.770Z,12.00
2019-03-21T16:02:38.417Z,12.00
2019-03-21T16:05:09.701Z,12.00
2019-03-21T16:07:40.763Z,12.00
2019-03-21T16:10:11.771Z,12.00
2019-03-21T16:12:42.855Z,12.00
2019-03-21T16:15:13.855Z,11.90
2019-03-21T16:17:45.040Z,11.90
2019-03-21T16:20:16.013Z,11.80
2019-03-21T16:22:47.109Z,11.70
2019-03-21T16:25:18.217Z,11.60
2019-03-21T16:27:49.369Z,11.60
2019-03-21T16:30:20.367Z,11.60
2019-03-21T16:32:51.482Z,11.50
2019-03-21T16:35:22.584Z,11.50
2019-03-21T16:37:53.640Z,11.40
2019-03-21T16:40:24.670Z,11.30
2019-03-21T16:42:55.642Z,11.30
2019-03-21T16:45:26.637Z,11.30
2019-03-21T16:47:58.028Z,11.20
2019-03-21T16:50:29.059Z,11.20
2019-03-21T16:53:00.125Z,11.00
2019-03-21T16:55:31.209Z,10.90
2019-03-21T16:58:02.205Z,10.90
2019-03-21T17:00:33.290Z,10.70
2019-03-21T17:03:04.606Z,10.70
2019-03-21T17:05:35.700Z,10.50
2019-03-21T17:08:11.577Z,10.40
2019-03-21T17:10:39.335Z,10.20
2019-03-21T17:13:10.431Z,10.10
2019-03-21T17:15:41.460Z,10.00
2019-03-21T17:18:12.425Z,9.90
2019-03-21T17:20:43.428Z,9.90
2019-03-21T17:23:14.510Z,9.80
2019-03-21T17:25:45.641Z,9.70
2019-03-21T17:28:16.744Z,9.70
2019-03-21T17:30:47.793Z,9.60
2019-03-21T17:33:18.863Z,9.50
2019-03-21T17:35:49.932Z,9.50
2019-03-21T17:38:21.041Z,9.50
2019-03-21T17:40:52.069Z,9.50
2019-03-21T17:43:23.054Z,9.60
2019-03-21T17:45:54.069Z,9.70
2019-03-21T17:48:25.063Z,9.70
2019-03-21T17:50:56.078Z,9.80
2019-03-21T17:53:27.097Z,9.90
2019-03-21T17:55:58.193Z,10.00
2019-03-21T17:58:30.258Z,10.00
2019-03-21T18:01:01.263Z,10.10
2019-03-21T18:03:32.361Z,10.10
2019-03-21T18:06:03.321Z,10.10
2019-03-21T18:08:34.343Z,10.10
2019-03-21T18:11:05.386Z,10.10
2019-03-21T18:13:36.444Z,10.10
2019-03-21T18:16:07.508Z,10.10
2019-03-21T18:18:38.576Z,10.00
2019-03-21T18:21:09.569Z,10.00
2019-03-21T18:23:40.680Z,10.00
2019-03-21T18:26:11.771Z,10.00
2019-03-21T18:28:42.873Z,10.00
2019-03-21T18:31:13.888Z,10.10
2019-03-21T18:33:46.193Z,10.00
2019-03-21T18:36:17.243Z,10.00
2019-03-21T18:38:57.633Z,10.00
2019-03-21T18:41:20.917Z,10.00
2019-03-21T18:43:52.061Z,10.00
2019-03-21T18:46:23.145Z,9.90
2019-03-21T18:48:54.254Z,9.90
2019-03-21T18:51:25.241Z,10.00
2019-03-21T18:53:56.370Z,9.90
2019-03-21T18:56:27.363Z,9.90
2019-03-21T18:58:58.397Z,9.90
2019-03-21T19:01:29.371Z,9.80
2019-03-21T19:04:00.576Z,9.90
2019-03-21T19:06:31.659Z,9.90
2019-03-21T19:09:02.844Z,9.80
2019-03-21T19:11:35.469Z,9.80
2019-03-21T19:14:06.447Z,9.70
2019-03-21T19:16:37.641Z,9.70
2019-03-21T19:19:08.627Z,9.60
2019-03-21T19:21:40.834Z,9.60
2019-03-21T19:24:11.947Z,9.50
2019-03-21T19:26:42.999Z,9.40
2019-03-21T19:29:15.161Z,9.40
2019-03-21T19:31:46.258Z,9.30
2019-03-21T19:34:17.348Z,9.30
2019-03-21T19:36:48.428Z,9.20
2019-03-21T19:39:19.469Z,9.20
2019-03-21T19:41:50.542Z,9.20
2019-03-21T19:44:21.584Z,9.10
2019-03-21T19:46:52.624Z,8.90
2019-03-21T19:49:24.907Z,8.80
2019-03-21T19:51:55.937Z,8.80
2019-03-21T19:54:26.888Z,8.70
2019-03-21T19:56:57.960Z,8.70
2019-03-21T19:59:30.181Z,8.70
2019-03-21T20:02:01.938Z,8.80
2019-03-21T20:04:33.048Z,8.80
2019-03-21T20:07:04.178Z,8.80
2019-03-21T20:09:35.223Z,8.80
2019-03-21T20:12:06.321Z,8.80
2019-03-21T20:14:37.398Z,8.80
2019-03-21T20:17:08.447Z,8.70
2019-03-21T20:19:39.657Z,8.60
2019-03-21T20:22:10.797Z,8.50
2019-03-21T20:24:41.883Z,8.40
2019-03-21T20:27:12.965Z,8.30
2019-03-21T20:29:44.008Z,8.10
2019-03-21T20:32:20.517Z,8.10
2019-03-21T20:34:47.786Z,8.00
2019-03-21T20:37:18.763Z,8.00
2019-03-21T20:39:49.847Z,8.00
2019-03-21T20:42:20.915Z,8.00
2019-03-21T20:44:51.928Z,8.00
2019-03-21T20:47:22.998Z,8.00
2019-03-21T20:49:54.068Z,8.00
2019-03-21T20:52:25.237Z,8.10
2019-03-21T20:54:56.271Z,8.10
2019-03-21T20:57:27.370Z,8.20
2019-03-21T20:59:58.338Z,8.20
2019-03-21T21:02:29.456Z,8.30
2019-03-21T21:05:00.526Z,8.30
2019-03-21T21:07:31.726Z,8.30
2019-03-21T21:10:02.735Z,8.40
2019-03-21T21:12:34.299Z,8.40
2019-03-21T21:15:06.064Z,8.40
2019-03-21T21:17:37.065Z,8.40
2019-03-21T21:20:09.229Z,8.40
2019-03-21T21:22:41.243Z,8.40
2019-03-21T21:25:12.345Z,8.40
2019-03-21T21:27:49.634Z,8.30
2019-03-21T21:30:18.516Z,8.30
2019-03-21T21:32:49.706Z,8.30
2019-03-21T21:35:20.830Z,8.20
2019-03-21T21:37:51.947Z,8.20
2019-03-21T21:40:22.968Z,8.20
2019-03-21T21:42:54.001Z,8.10
2019-03-21T21:45:24.996Z,8.10
2019-03-21T21:47:56.068Z,8.00
2019-03-21T21:50:27.082Z,8.00
2019-03-21T21:52:58.114Z,7.90
2019-03-21T21:55:29.148Z,7.90
2019-03-21T21:58:00.255Z,8.00
2019-03-21T22:00:31.362Z,7.90
2019-03-21T22:03:02.404Z,7.80
2019-03-21T22:05:33.411Z,7.70
2019-03-21T22:08:04.527Z,7.70
2019-03-21T22:10:35.626Z,7.60
2019-03-21T22:13:06.769Z,7.50
2019-03-21T22:15:37.792Z,7.40
2019-03-21T22:18:08.933Z,7.40
2019-03-21T22:20:39.933Z,7.30
2019-03-21T22:23:11.076Z,7.30
2019-03-21T22:25:42.085Z,7.20
2019-03-21T22:28:13.110Z,7.10
2019-03-21T22:30:44.161Z,7.10
2019-03-21T22:33:15.204Z,7.00
2019-03-21T22:35:46.230Z,7.00
2019-03-21T22:38:17.248Z,7.00
2019-03-21T22:40:48.351Z,6.90
2019-03-21T22:43:19.346Z,6.80
2019-03-21T22:45:50.349Z,6.70
2019-03-21T22:48:21.314Z,6.70
2019-03-21T22:50:52.310Z,6.60
2019-03-21T22:53:23.372Z,6.50
2019-03-21T22:55:54.494Z,6.50
2019-03-21T22:58:31.696Z,6.40
2019-03-21T23:00:58.112Z,6.40
2019-03-21T23:03:30.758Z,6.40
2019-03-21T23:06:01.812Z,6.30
2019-03-21T23:08:32.816Z,6.30
2019-03-21T23:11:03.956Z,6.20
2019-03-21T23:13:35.097Z,6.10
2019-03-21T23:16:06.120Z,6.10
2019-03-21T23:18:37.126Z,6.10
2019-03-21T23:21:08.196Z,6.20
2019-03-21T23:23:39.262Z,6.20
2019-03-21T23:26:10.464Z,6.20
2019-03-21T23:28:41.542Z,6.20
2019-03-21T23:31:12.674Z,6.20
2019-03-21T23:33:43.725Z,6.20
2019-03-21T23:36:15.812Z,6.30
2019-03-21T23:38:46.991Z,6.30
2019-03-21T23:41:18.073Z,6.30
2019-03-21T23:43:49.096Z,6.30
2019-03-21T23:46:20.159Z,6.30
2019-03-21T23:48:51.177Z,6.30
2019-03-21T23:51:22.166Z,6.30
2019-03-21T23:53:53.180Z,6.30
2019-03-21T23:56:24.261Z,6.20
2019-03-21T23:58:55.537Z,6.20
